createdAt,value
2022-12-29T00:00:18.435Z,10.30
2022-12-29T00:00:49.849Z,9.93
2022-12-29T00:01:21.306Z,10.15
2022-12-29T00:01:52.700Z,9.77
2022-12-29T00:02:24.092Z,9.85
2022-12-29T00:02:55.558Z,10.20
2022-12-29T00:03:27.285Z,9.30
2022-12-29T00:03:58.899Z,10.45
2022-12-29T00:04:30.405Z,9.40
2022-12-29T00:05:01.779Z,9.65
2022-12-29T00:05:33.157Z,9.88
2022-12-29T00:06:04.549Z,9.70
2022-12-29T00:06:35.958Z,8.82
2022-12-29T00:07:07.837Z,9.93
2022-12-29T00:07:39.226Z,10.00
2022-12-29T00:08:10.558Z,9.50
2022-12-29T00:08:42.012Z,10.48
2022-12-29T00:09:13.994Z,9.95
2022-12-29T00:09:45.385Z,10.30
2022-12-29T00:10:16.786Z,9.37
2022-12-29T00:10:48.203Z,9.70
2022-12-29T00:11:21.135Z,9.00
2022-12-29T00:11:52.528Z,9.88
2022-12-29T00:12:23.950Z,9.82
2022-12-29T00:12:55.344Z,9.13
2022-12-29T00:13:26.721Z,10.23
2022-12-29T00:13:58.171Z,9.85
2022-12-29T00:14:29.488Z,9.05
2022-12-29T00:15:00.823Z,9.73
2022-12-29T00:15:32.273Z,10.15
2022-12-29T00:16:03.809Z,9.65
2022-12-29T00:16:36.105Z,10.15
2022-12-29T00:17:07.657Z,9.60
2022-12-29T00:17:38.985Z,9.38
2022-12-29T00:18:10.423Z,9.82
2022-12-29T00:18:41.835Z,9.75
2022-12-29T00:19:13.436Z,8.75
2022-12-29T00:19:45.293Z,10.13
2022-12-29T00:20:16.750Z,9.52
2022-12-29T00:20:49.300Z,8.32
2022-12-29T00:21:21.924Z,9.75
2022-12-29T00:21:53.306Z,10.52
2022-12-29T00:22:24.792Z,10.95
2022-12-29T00:22:56.230Z,9.50
2022-12-29T00:23:27.619Z,9.95
2022-12-29T00:23:59.015Z,9.73
2022-12-29T00:24:30.497Z,10.05
2022-12-29T00:25:02.193Z,9.88
2022-12-29T00:25:33.620Z,9.65
2022-12-29T00:26:05.171Z,9.55
2022-12-29T00:26:36.604Z,9.50
2022-12-29T00:27:08.028Z,9.40
2022-12-29T00:27:39.481Z,9.82
2022-12-29T00:28:10.883Z,9.00
2022-12-29T00:28:42.271Z,9.43
2022-12-29T00:29:13.680Z,8.82
2022-12-29T00:29:45.583Z,9.20
2022-12-29T00:30:18.196Z,9.57
2022-12-29T00:30:49.616Z,9.48
2022-12-29T00:31:21.044Z,9.30
2022-12-29T00:31:52.484Z,8.95
2022-12-29T00:32:23.885Z,9.65
2022-12-29T00:32:55.451Z,10.18
2022-12-29T00:33:29.029Z,9.23
2022-12-29T00:34:00.416Z,9.27
2022-12-29T00:34:31.789Z,9.30
2022-12-29T00:35:03.227Z,10.68
2022-12-29T00:35:37.788Z,9.70
2022-12-29T00:36:12.772Z,8.85
2022-12-29T00:36:44.813Z,9.85
2022-12-29T00:37:16.712Z,9.50
2022-12-29T00:37:48.761Z,9.73
2022-12-29T00:38:20.662Z,10.07
2022-12-29T00:38:53.937Z,9.90
2022-12-29T00:39:25.296Z,9.43
2022-12-29T00:39:56.658Z,9.07
2022-12-29T00:40:28.061Z,9.95
2022-12-29T00:40:59.485Z,8.90
2022-12-29T00:41:30.824Z,9.07
2022-12-29T00:42:06.002Z,9.60
2022-12-29T00:42:37.380Z,9.75
2022-12-29T00:43:08.723Z,9.10
2022-12-29T00:43:40.148Z,9.90
2022-12-29T00:44:12.676Z,8.50
2022-12-29T00:44:44.005Z,9.27
2022-12-29T00:45:15.346Z,9.65
2022-12-29T00:45:46.788Z,9.35
2022-12-29T00:46:20.241Z,8.98
2022-12-29T00:46:51.919Z,9.60
2022-12-29T00:47:23.340Z,9.88
2022-12-29T00:47:54.723Z,9.82
2022-12-29T00:48:26.105Z,9.45
2022-12-29T00:48:57.897Z,9.00
2022-12-29T00:49:29.391Z,9.48
2022-12-29T00:50:00.788Z,10.05
2022-12-29T00:50:32.181Z,9.80
2022-12-29T00:51:03.649Z,9.82
2022-12-29T00:51:35.029Z,9.70
2022-12-29T00:52:08.216Z,9.63
2022-12-29T00:52:39.653Z,9.27
2022-12-29T00:53:11.010Z,10.50
2022-12-29T00:53:42.430Z,9.75
2022-12-29T00:54:14.321Z,9.57
2022-12-29T00:54:45.762Z,9.23
2022-12-29T00:55:17.208Z,9.70
2022-12-29T00:55:48.899Z,9.68
2022-12-29T00:56:20.287Z,9.65
2022-12-29T00:56:52.233Z,9.02
2022-12-29T00:57:23.723Z,10.05
2022-12-29T00:57:55.263Z,9.93
2022-12-29T00:58:30.063Z,9.98
2022-12-29T00:59:05.556Z,10.30
2022-12-29T00:59:37.349Z,10.10
2022-12-29T01:00:09.084Z,9.53
2022-12-29T01:00:40.922Z,9.05
2022-12-29T01:01:12.397Z,9.50
2022-12-29T01:01:44.225Z,9.88
2022-12-29T01:02:15.795Z,10.13
2022-12-29T01:02:47.425Z,11.25
2022-12-29T01:03:18.955Z,9.93
2022-12-29T01:03:50.393Z,9.80
2022-12-29T01:04:22.478Z,10.05
2022-12-29T01:04:53.863Z,9.52
2022-12-29T01:05:25.268Z,9.48
2022-12-29T01:05:56.706Z,9.70
2022-12-29T01:06:28.190Z,9.40
2022-12-29T01:06:59.774Z,10.77
2022-12-29T01:07:31.146Z,10.05
2022-12-29T01:08:02.501Z,9.75
2022-12-29T01:08:34.205Z,10.20
2022-12-29T01:09:06.656Z,9.40
2022-12-29T01:09:38.059Z,9.20
2022-12-29T01:10:09.482Z,9.80
2022-12-29T01:10:40.919Z,9.90
2022-12-29T01:11:13.181Z,9.40
2022-12-29T01:11:44.565Z,10.05
2022-12-29T01:12:15.992Z,9.82
2022-12-29T01:12:49.729Z,9.57
2022-12-29T01:13:21.080Z,9.77
2022-12-29T01:13:52.983Z,10.02
2022-12-29T01:14:24.882Z,10.20
2022-12-29T01:14:56.302Z,10.85
2022-12-29T01:15:27.640Z,9.88
2022-12-29T01:15:59.314Z,10.32
2022-12-29T01:16:31.192Z,9.77
2022-12-29T01:17:02.665Z,9.68
2022-12-29T01:17:34.109Z,9.73
2022-12-29T01:18:06.009Z,10.18
2022-12-29T01:18:37.393Z,9.75
2022-12-29T01:19:08.888Z,9.63
2022-12-29T01:19:40.308Z,10.45
2022-12-29T01:20:12.061Z,10.55
2022-12-29T01:20:43.442Z,9.88
2022-12-29T01:21:14.783Z,9.45
2022-12-29T01:21:46.653Z,9.75
2022-12-29T01:22:18.061Z,10.40
2022-12-29T01:22:49.459Z,10.50
2022-12-29T01:23:20.894Z,10.15
2022-12-29T01:23:52.479Z,9.48
2022-12-29T01:24:23.874Z,9.55
2022-12-29T01:24:55.252Z,10.00
2022-12-29T01:25:26.644Z,11.30
2022-12-29T01:25:58.094Z,10.00
2022-12-29T01:26:29.520Z,9.70
2022-12-29T01:27:00.911Z,10.03
2022-12-29T01:27:32.282Z,10.27
2022-12-29T01:28:04.232Z,12.35
2022-12-29T01:28:35.669Z,10.35
2022-12-29T01:29:07.162Z,10.27
2022-12-29T01:29:38.707Z,9.60
2022-12-29T01:30:10.334Z,10.00
2022-12-29T01:30:41.723Z,10.38
2022-12-29T01:31:14.605Z,10.50
2022-12-29T01:31:46.163Z,10.85
2022-12-29T01:32:18.128Z,10.63
2022-12-29T01:32:49.630Z,10.63
2022-12-29T01:33:21.013Z,9.98
2022-12-29T01:33:52.352Z,9.75
2022-12-29T01:34:23.749Z,9.63
2022-12-29T01:34:55.174Z,10.00
2022-12-29T01:35:26.664Z,10.27
2022-12-29T01:36:02.000Z,10.68
2022-12-29T01:36:33.636Z,9.63
2022-12-29T01:37:05.679Z,9.57
2022-12-29T01:37:37.035Z,9.45
2022-12-29T01:38:08.454Z,10.95
2022-12-29T01:38:40.247Z,9.93
2022-12-29T01:39:11.691Z,9.93
2022-12-29T01:39:43.170Z,10.77
2022-12-29T01:40:14.613Z,9.93
2022-12-29T01:40:46.749Z,10.73
2022-12-29T01:41:18.581Z,10.32
2022-12-29T01:41:49.948Z,9.77
2022-12-29T01:42:24.111Z,9.90
2022-12-29T01:42:55.535Z,9.80
2022-12-29T01:43:46.583Z,10.20
2022-12-29T01:44:36.792Z,11.02
2022-12-29T01:45:11.440Z,10.32
2022-12-29T01:45:46.362Z,9.77
2022-12-29T01:46:34.380Z,9.85
2022-12-29T01:47:05.810Z,9.18
2022-12-29T01:47:48.816Z,10.07
2022-12-29T01:48:22.678Z,11.48
2022-12-29T01:48:56.446Z,9.95
2022-12-29T01:49:28.297Z,10.77
2022-12-29T01:50:01.664Z,11.00
2022-12-29T01:50:34.350Z,10.43
2022-12-29T01:51:05.795Z,10.80
2022-12-29T01:51:39.784Z,9.60
2022-12-29T01:52:11.259Z,10.43
2022-12-29T01:52:45.928Z,10.55
2022-12-29T01:53:19.723Z,9.70
2022-12-29T01:53:51.371Z,10.27
2022-12-29T01:54:22.720Z,9.73
2022-12-29T01:54:56.091Z,10.65
2022-12-29T01:55:29.109Z,9.07
2022-12-29T01:56:02.685Z,10.18
2022-12-29T01:56:34.170Z,9.98
2022-12-29T01:57:07.588Z,9.88
2022-12-29T01:57:40.501Z,9.45
2022-12-29T01:58:12.710Z,10.85
2022-12-29T01:58:45.811Z,9.95
2022-12-29T01:59:19.017Z,9.30
2022-12-29T01:59:54.852Z,9.43
2022-12-29T02:00:26.222Z,9.95
2022-12-29T02:00:57.712Z,10.55
2022-12-29T02:01:29.276Z,9.55
2022-12-29T02:02:00.999Z,10.15
2022-12-29T02:02:33.610Z,10.65
2022-12-29T02:03:07.004Z,9.73
2022-12-29T02:03:38.922Z,9.90
2022-12-29T02:04:12.025Z,9.48
2022-12-29T02:04:44.139Z,9.48
2022-12-29T02:05:19.503Z,9.90
2022-12-29T02:05:54.584Z,9.40
2022-12-29T02:06:46.241Z,10.80
2022-12-29T02:07:23.021Z,9.35
2022-12-29T02:07:54.858Z,9.63
2022-12-29T02:08:27.770Z,10.20
2022-12-29T02:08:59.864Z,9.52
2022-12-29T02:09:31.488Z,9.82
2022-12-29T02:10:03.488Z,9.75
2022-12-29T02:10:35.971Z,10.60
2022-12-29T02:11:08.068Z,9.80
2022-12-29T02:11:39.618Z,10.38
2022-12-29T02:12:11.104Z,9.50
2022-12-29T02:12:42.500Z,9.43
2022-12-29T02:13:16.455Z,10.63
2022-12-29T02:13:49.848Z,10.23
2022-12-29T02:14:21.228Z,9.95
2022-12-29T02:14:55.311Z,9.73
2022-12-29T02:15:43.205Z,10.10
2022-12-29T02:16:41.323Z,10.52
2022-12-29T02:17:18.569Z,10.00
2022-12-29T02:17:49.964Z,9.52
2022-12-29T02:18:39.838Z,10.80
2022-12-29T02:19:20.326Z,9.38
2022-12-29T02:20:00.510Z,9.30
2022-12-29T02:20:38.155Z,9.95
2022-12-29T02:21:28.089Z,10.60
2022-12-29T02:22:06.471Z,10.05
2022-12-29T02:22:55.701Z,9.80
2022-12-29T02:23:35.926Z,10.00
2022-12-29T02:24:16.528Z,9.30
2022-12-29T02:24:49.952Z,9.30
2022-12-29T02:25:24.383Z,9.38
2022-12-29T02:26:09.062Z,10.30
2022-12-29T02:26:59.193Z,9.50
2022-12-29T02:27:36.766Z,10.57
2022-12-29T02:28:08.100Z,10.50
2022-12-29T02:28:48.622Z,10.35
2022-12-29T02:29:32.325Z,9.30
2022-12-29T02:30:06.534Z,10.90
2022-12-29T02:30:48.935Z,10.50
2022-12-29T02:31:32.313Z,10.23
2022-12-29T02:32:16.952Z,10.70
2022-12-29T02:32:51.513Z,9.85
2022-12-29T02:33:41.572Z,10.55
2022-12-29T02:34:42.559Z,10.93
2022-12-29T02:35:32.421Z,11.00
2022-12-29T02:36:06.635Z,10.07
2022-12-29T02:36:38.898Z,10.63
2022-12-29T02:37:25.377Z,10.00
2022-12-29T02:38:32.050Z,9.50
2022-12-29T02:39:09.974Z,10.77
2022-12-29T02:39:59.710Z,9.90
2022-12-29T02:40:40.963Z,9.98
2022-12-29T02:41:31.025Z,10.27
2022-12-29T02:42:22.503Z,10.18
2022-12-29T02:43:13.073Z,11.45
2022-12-29T02:43:44.431Z,10.32
2022-12-29T02:44:22.622Z,11.00
2022-12-29T02:44:57.008Z,10.40
2022-12-29T02:45:47.406Z,10.05
2022-12-29T02:46:21.998Z,10.85
2022-12-29T02:46:53.337Z,10.82
2022-12-29T02:47:51.042Z,10.77
2022-12-29T02:48:33.698Z,11.07
2022-12-29T02:49:09.077Z,11.23
2022-12-29T02:49:45.339Z,10.32
2022-12-29T02:50:35.519Z,10.00
2022-12-29T02:51:13.342Z,9.57
2022-12-29T02:51:50.614Z,10.02
2022-12-29T02:52:30.805Z,10.45
2022-12-29T02:53:05.727Z,10.55
2022-12-29T02:53:37.675Z,10.87
2022-12-29T02:54:09.166Z,9.95
2022-12-29T02:54:40.902Z,9.70
2022-12-29T02:55:12.340Z,10.88
2022-12-29T02:55:50.237Z,10.55
2022-12-29T02:56:21.917Z,11.00
2022-12-29T02:56:53.257Z,10.57
2022-12-29T02:57:24.608Z,10.30
2022-12-29T02:58:17.211Z,11.40
2022-12-29T02:58:48.623Z,10.88
2022-12-29T02:59:20.205Z,10.98
2022-12-29T03:00:14.749Z,9.93
2022-12-29T03:00:54.747Z,10.47
2022-12-29T03:01:29.169Z,10.65
2022-12-29T03:02:06.691Z,10.40
2022-12-29T03:02:57.730Z,10.23
2022-12-29T03:03:35.427Z,10.32
2022-12-29T03:04:30.850Z,10.63
2022-12-29T03:05:11.207Z,10.27
2022-12-29T03:05:45.504Z,10.40
2022-12-29T03:06:29.076Z,11.45
2022-12-29T03:07:09.203Z,10.75
2022-12-29T03:07:49.373Z,10.98
2022-12-29T03:08:23.553Z,11.45
2022-12-29T03:08:54.946Z,10.75
2022-12-29T03:09:38.473Z,11.55
2022-12-29T03:10:15.739Z,11.85
2022-12-29T03:10:47.167Z,10.93
2022-12-29T03:11:18.555Z,10.90
2022-12-29T03:12:03.199Z,11.52
2022-12-29T03:12:40.593Z,11.32
2022-12-29T03:13:24.010Z,11.45
2022-12-29T03:13:58.103Z,11.90
2022-12-29T03:14:49.756Z,10.38
2022-12-29T03:15:28.739Z,10.20
2022-12-29T03:16:05.822Z,10.68
2022-12-29T03:16:48.745Z,10.85
2022-12-29T03:17:35.032Z,11.35
2022-12-29T03:18:07.469Z,11.18
2022-12-29T03:18:57.361Z,10.80
2022-12-29T03:19:33.356Z,10.52
2022-12-29T03:20:08.120Z,11.15
2022-12-29T03:20:42.838Z,11.55
2022-12-29T03:21:20.632Z,9.98
2022-12-29T03:22:00.202Z,10.15
2022-12-29T03:22:33.572Z,10.52
2022-12-29T03:23:06.306Z,10.57
2022-12-29T03:23:38.613Z,10.13
2022-12-29T03:24:10.505Z,10.40
2022-12-29T03:24:45.580Z,9.73
2022-12-29T03:25:30.753Z,9.65
2022-12-29T03:26:04.275Z,9.27
2022-12-29T03:26:36.996Z,8.93
2022-12-29T03:27:10.421Z,9.07
2022-12-29T03:27:43.309Z,9.40
2022-12-29T03:28:17.497Z,9.00
2022-12-29T03:28:52.780Z,9.85
2022-12-29T03:29:24.728Z,8.63
2022-12-29T03:29:58.983Z,8.82
2022-12-29T03:30:31.645Z,9.02
2022-12-29T03:31:04.180Z,9.50
2022-12-29T03:31:36.622Z,8.68
2022-12-29T03:32:09.795Z,9.18
2022-12-29T03:32:49.992Z,8.80
2022-12-29T03:33:23.782Z,9.90
2022-12-29T03:33:56.151Z,8.35
2022-12-29T03:34:27.904Z,9.00
2022-12-29T03:34:59.539Z,8.87
2022-12-29T03:35:32.670Z,8.45
2022-12-29T03:36:05.644Z,8.75
2022-12-29T03:36:48.727Z,8.73
2022-12-29T03:37:23.225Z,9.18
2022-12-29T03:38:03.445Z,9.00
2022-12-29T03:38:36.608Z,8.67
2022-12-29T03:39:10.539Z,8.77
2022-12-29T03:39:42.300Z,9.50
2022-12-29T03:40:13.787Z,8.63
2022-12-29T03:40:47.961Z,8.68
2022-12-29T03:41:22.767Z,9.15
2022-12-29T03:41:58.506Z,9.13
2022-12-29T03:42:31.861Z,8.75
2022-12-29T03:43:03.439Z,9.13
2022-12-29T03:43:34.817Z,8.93
2022-12-29T03:44:09.642Z,8.97
2022-12-29T03:44:42.302Z,8.57
2022-12-29T03:45:14.356Z,9.03
2022-12-29T03:45:45.987Z,9.25
2022-12-29T03:46:17.535Z,9.77
2022-12-29T03:46:51.033Z,8.70
2022-12-29T03:47:22.912Z,9.45
2022-12-29T03:47:54.304Z,9.20
2022-12-29T03:48:25.741Z,8.82
2022-12-29T03:48:57.134Z,8.48
2022-12-29T03:49:28.671Z,8.77
2022-12-29T03:50:00.083Z,9.18
2022-12-29T03:50:31.596Z,9.05
2022-12-29T03:51:03.075Z,8.75
2022-12-29T03:51:34.488Z,9.57
2022-12-29T03:52:05.911Z,8.55
2022-12-29T03:52:37.287Z,8.55
2022-12-29T03:53:08.694Z,8.30
2022-12-29T03:53:40.121Z,8.90
2022-12-29T03:54:11.501Z,9.27
2022-12-29T03:54:42.885Z,7.82
2022-12-29T03:55:14.377Z,9.15
2022-12-29T03:55:45.967Z,9.05
2022-12-29T03:56:17.458Z,8.97
2022-12-29T03:56:49.797Z,8.40
2022-12-29T03:57:21.137Z,9.32
2022-12-29T03:57:52.521Z,9.02
2022-12-29T03:58:24.042Z,9.13
2022-12-29T03:58:55.470Z,9.32
2022-12-29T03:59:26.893Z,9.32
2022-12-29T03:59:58.298Z,9.18
2022-12-29T04:00:29.663Z,8.57
2022-12-29T04:01:01.148Z,8.45
2022-12-29T04:01:32.786Z,8.43
2022-12-29T04:02:04.296Z,9.05
2022-12-29T04:02:35.975Z,8.45
2022-12-29T04:03:07.593Z,8.60
2022-12-29T04:03:39.037Z,8.60
2022-12-29T04:04:10.546Z,8.05
2022-12-29T04:04:41.939Z,8.40
2022-12-29T04:05:13.321Z,8.50
2022-12-29T04:05:45.747Z,7.35
2022-12-29T04:06:17.233Z,8.20
2022-12-29T04:06:48.656Z,8.43
2022-12-29T04:07:20.048Z,7.15
2022-12-29T04:07:51.428Z,7.93
2022-12-29T04:08:22.814Z,7.85
2022-12-29T04:08:54.199Z,7.90
2022-12-29T04:09:25.600Z,7.65
2022-12-29T04:09:56.971Z,8.05
2022-12-29T04:10:28.413Z,8.20
2022-12-29T04:10:59.810Z,8.00
2022-12-29T04:11:33.257Z,7.97
2022-12-29T04:12:04.983Z,8.18
2022-12-29T04:12:36.354Z,8.50
2022-12-29T04:13:07.703Z,7.43
2022-12-29T04:13:39.083Z,7.50
2022-12-29T04:14:10.478Z,7.05
2022-12-29T04:14:41.849Z,7.60
2022-12-29T04:15:13.393Z,8.00
2022-12-29T04:15:45.918Z,7.85
2022-12-29T04:16:17.389Z,7.07
2022-12-29T04:16:49.785Z,8.07
2022-12-29T04:17:21.149Z,7.30
2022-12-29T04:17:52.668Z,7.07
2022-12-29T04:18:24.070Z,6.55
2022-12-29T04:18:55.457Z,7.10
2022-12-29T04:19:26.839Z,8.00
2022-12-29T04:19:58.226Z,6.75
2022-12-29T04:20:29.616Z,7.68
2022-12-29T04:21:01.003Z,7.18
2022-12-29T04:21:32.425Z,7.70
2022-12-29T04:22:03.816Z,7.80
2022-12-29T04:22:35.158Z,6.95
2022-12-29T04:23:07.107Z,7.65
2022-12-29T04:23:39.470Z,8.43
2022-12-29T04:24:10.851Z,7.60
2022-12-29T04:24:42.284Z,8.30
2022-12-29T04:25:13.680Z,7.45
2022-12-29T04:25:46.738Z,6.82
2022-12-29T04:26:18.348Z,7.32
2022-12-29T04:26:49.777Z,6.93
2022-12-29T04:27:21.165Z,7.70
2022-12-29T04:27:52.501Z,7.23
2022-12-29T04:28:23.933Z,8.13
2022-12-29T04:28:55.419Z,8.30
2022-12-29T04:29:26.799Z,7.07
2022-12-29T04:29:58.146Z,7.25
2022-12-29T04:30:29.577Z,7.28
2022-12-29T04:31:01.040Z,6.72
2022-12-29T04:31:32.654Z,7.55
2022-12-29T04:32:04.194Z,7.85
2022-12-29T04:32:35.682Z,7.20
2022-12-29T04:33:07.121Z,7.07
2022-12-29T04:33:38.970Z,7.00
2022-12-29T04:34:10.385Z,6.85
2022-12-29T04:34:41.792Z,6.95
2022-12-29T04:35:13.195Z,7.00
2022-12-29T04:35:44.976Z,7.43
2022-12-29T04:36:16.409Z,7.53
2022-12-29T04:36:50.160Z,7.80
2022-12-29T04:37:21.597Z,6.95
2022-12-29T04:37:52.995Z,6.90
2022-12-29T04:38:24.893Z,6.68
2022-12-29T04:38:56.285Z,7.05
2022-12-29T04:39:27.679Z,7.03
2022-12-29T04:39:59.086Z,7.35
2022-12-29T04:40:30.472Z,7.35
2022-12-29T04:41:02.115Z,7.00
2022-12-29T04:41:33.587Z,6.97
2022-12-29T04:42:05.869Z,7.13
2022-12-29T04:42:37.322Z,7.03
2022-12-29T04:43:08.782Z,6.57
2022-12-29T04:43:40.188Z,7.18
2022-12-29T04:44:11.618Z,7.10
2022-12-29T04:44:45.225Z,7.57
2022-12-29T04:45:16.941Z,6.75
2022-12-29T04:45:48.703Z,6.95
2022-12-29T04:46:20.201Z,7.75
2022-12-29T04:46:51.659Z,7.32
2022-12-29T04:47:23.065Z,7.45
2022-12-29T04:47:54.537Z,8.52
2022-12-29T04:48:25.923Z,7.78
2022-12-29T04:48:57.367Z,9.02
2022-12-29T04:49:28.803Z,8.02
2022-12-29T04:50:00.233Z,8.60
2022-12-29T04:50:31.675Z,7.18
2022-12-29T04:51:03.136Z,7.43
2022-12-29T04:51:34.550Z,6.72
2022-12-29T04:52:05.945Z,7.60
2022-12-29T04:52:37.626Z,7.43
2022-12-29T04:53:09.114Z,8.10
2022-12-29T04:53:40.564Z,6.80
2022-12-29T04:54:11.947Z,7.75
2022-12-29T04:54:43.339Z,7.18
2022-12-29T04:55:14.911Z,6.82
2022-12-29T04:55:49.573Z,6.72
2022-12-29T04:56:20.913Z,8.38
2022-12-29T04:56:52.301Z,7.28
2022-12-29T04:57:23.732Z,7.55
2022-12-29T04:57:55.120Z,7.53
2022-12-29T04:58:26.528Z,7.25
2022-12-29T04:58:57.890Z,7.35
2022-12-29T04:59:29.231Z,7.60
2022-12-29T05:00:00.632Z,7.65
2022-12-29T05:00:32.026Z,7.67
2022-12-29T05:01:03.453Z,7.85
2022-12-29T05:01:34.976Z,8.05
2022-12-29T05:02:06.501Z,7.50
2022-12-29T05:02:38.605Z,7.73
2022-12-29T05:03:10.434Z,6.63
2022-12-29T05:03:41.999Z,6.65
2022-12-29T05:04:13.391Z,6.88
2022-12-29T05:04:45.797Z,7.50
2022-12-29T05:05:17.391Z,7.00
2022-12-29T05:05:48.782Z,7.13
2022-12-29T05:06:20.213Z,6.72
2022-12-29T05:06:51.637Z,7.00
2022-12-29T05:07:23.043Z,7.47
2022-12-29T05:07:54.426Z,7.55
2022-12-29T05:08:28.367Z,6.45
2022-12-29T05:09:00.130Z,7.28
2022-12-29T05:09:31.506Z,7.32
2022-12-29T05:10:03.219Z,7.22
2022-12-29T05:10:34.640Z,6.78
2022-12-29T05:11:06.024Z,7.53
2022-12-29T05:11:37.586Z,6.85
2022-12-29T05:12:08.999Z,7.60
2022-12-29T05:12:40.448Z,6.63
2022-12-29T05:13:11.858Z,7.85
2022-12-29T05:13:46.238Z,7.25
2022-12-29T05:14:17.720Z,6.60
2022-12-29T05:14:50.127Z,7.13
2022-12-29T05:15:21.512Z,7.07
2022-12-29T05:15:53.778Z,7.10
2022-12-29T05:16:25.310Z,6.65
2022-12-29T05:16:56.749Z,6.03
2022-12-29T05:17:28.082Z,8.35
2022-12-29T05:17:59.414Z,6.80
2022-12-29T05:18:30.857Z,6.55
2022-12-29T05:19:02.218Z,7.45
2022-12-29T05:19:33.794Z,5.97
2022-12-29T05:20:06.013Z,6.25
2022-12-29T05:20:37.374Z,6.10
2022-12-29T05:21:08.819Z,5.53
2022-12-29T05:21:40.187Z,6.18
2022-12-29T05:22:11.598Z,6.63
2022-12-29T05:22:42.966Z,5.97
2022-12-29T05:23:14.594Z,6.10
2022-12-29T05:23:45.932Z,6.22
2022-12-29T05:24:17.328Z,6.22
2022-12-29T05:24:50.005Z,7.53
2022-12-29T05:25:21.432Z,6.90
2022-12-29T05:25:52.819Z,6.65
2022-12-29T05:26:24.256Z,6.47
2022-12-29T05:26:55.641Z,6.45
2022-12-29T05:27:27.078Z,6.47
2022-12-29T05:27:58.408Z,6.80
2022-12-29T05:28:29.799Z,6.13
2022-12-29T05:29:01.194Z,6.25
2022-12-29T05:29:32.630Z,5.57
2022-12-29T05:30:04.341Z,6.63
2022-12-29T05:30:35.712Z,6.63
2022-12-29T05:31:07.126Z,6.13
2022-12-29T05:31:39.146Z,5.88
2022-12-29T05:32:10.629Z,6.22
2022-12-29T05:32:42.024Z,5.70
2022-12-29T05:33:13.351Z,6.45
2022-12-29T05:33:44.792Z,5.78
2022-12-29T05:34:16.240Z,6.13
2022-12-29T05:34:47.721Z,6.07
2022-12-29T05:35:19.145Z,5.82
2022-12-29T05:35:50.550Z,6.18
2022-12-29T05:36:21.984Z,5.75
2022-12-29T05:36:53.371Z,5.93
2022-12-29T05:37:24.791Z,6.20
2022-12-29T05:37:56.129Z,5.72
2022-12-29T05:38:27.485Z,5.30
2022-12-29T05:38:58.861Z,5.65
2022-12-29T05:39:30.348Z,6.47
2022-12-29T05:40:01.800Z,5.97
2022-12-29T05:40:33.226Z,5.68
2022-12-29T05:41:04.708Z,5.45
2022-12-29T05:41:36.165Z,5.47
2022-12-29T05:42:07.581Z,5.70
2022-12-29T05:42:39.171Z,6.53
2022-12-29T05:43:10.560Z,5.72
2022-12-29T05:43:41.893Z,6.43
2022-12-29T05:44:13.330Z,5.85
2022-12-29T05:44:44.713Z,5.73
2022-12-29T05:45:16.150Z,5.60
2022-12-29T05:45:49.341Z,6.28
2022-12-29T05:46:20.778Z,5.10
2022-12-29T05:46:52.365Z,6.00
2022-12-29T05:47:23.858Z,6.90
2022-12-29T05:47:55.242Z,5.55
2022-12-29T05:48:26.979Z,5.22
2022-12-29T05:48:58.512Z,6.43
2022-12-29T05:49:29.862Z,6.78
2022-12-29T05:50:01.623Z,5.95
2022-12-29T05:50:33.089Z,5.75
2022-12-29T05:51:04.677Z,5.60
2022-12-29T05:51:36.066Z,6.28
2022-12-29T05:52:07.459Z,6.22
2022-12-29T05:52:38.892Z,5.82
2022-12-29T05:53:10.276Z,6.63
2022-12-29T05:53:41.704Z,6.63
2022-12-29T05:54:13.253Z,5.97
2022-12-29T05:54:44.643Z,6.35
2022-12-29T05:55:16.031Z,6.55
2022-12-29T05:55:49.055Z,6.75
2022-12-29T05:56:20.692Z,5.60
2022-12-29T05:56:52.070Z,6.50
2022-12-29T05:57:23.422Z,6.45
2022-12-29T05:57:54.807Z,6.70
2022-12-29T05:58:26.179Z,6.90
2022-12-29T05:58:57.570Z,6.13
2022-12-29T05:59:28.961Z,6.45
2022-12-29T06:00:00.462Z,6.20
2022-12-29T06:00:31.940Z,6.75
2022-12-29T06:01:03.332Z,6.95
2022-12-29T06:01:34.832Z,7.60
2022-12-29T06:02:06.504Z,7.00
2022-12-29T06:02:38.906Z,7.28
2022-12-29T06:03:10.545Z,6.95
2022-12-29T06:03:47.970Z,6.57
2022-12-29T06:04:19.815Z,7.45
2022-12-29T06:04:51.210Z,6.88
2022-12-29T06:05:22.543Z,6.57
2022-12-29T06:05:53.935Z,7.00
2022-12-29T06:06:25.272Z,6.60
2022-12-29T06:06:56.708Z,6.95
2022-12-29T06:07:28.099Z,7.25
2022-12-29T06:07:59.479Z,7.13
2022-12-29T06:08:30.858Z,6.80
2022-12-29T06:09:02.235Z,7.13
2022-12-29T06:09:33.635Z,7.22
2022-12-29T06:10:06.107Z,6.88
2022-12-29T06:10:37.499Z,7.23
2022-12-29T06:11:08.866Z,7.15
2022-12-29T06:11:40.227Z,7.00
2022-12-29T06:12:11.619Z,7.35
2022-12-29T06:12:42.992Z,7.85
2022-12-29T06:13:14.347Z,7.35
2022-12-29T06:13:45.739Z,7.18
2022-12-29T06:14:17.150Z,6.90
2022-12-29T06:14:48.628Z,7.07
2022-12-29T06:15:20.034Z,6.82
2022-12-29T06:15:51.928Z,7.30
2022-12-29T06:16:23.374Z,6.70
2022-12-29T06:16:54.829Z,7.38
2022-12-29T06:17:26.211Z,7.28
2022-12-29T06:17:57.583Z,7.30
2022-12-29T06:18:28.995Z,7.55
2022-12-29T06:19:00.355Z,7.35
2022-12-29T06:19:31.771Z,6.25
2022-12-29T06:20:03.830Z,7.40
2022-12-29T06:20:35.254Z,7.30
2022-12-29T06:21:06.647Z,7.65
2022-12-29T06:21:38.664Z,8.77
2022-12-29T06:22:10.033Z,7.25
2022-12-29T06:22:41.617Z,7.78
2022-12-29T06:23:13.153Z,6.93
2022-12-29T06:23:44.506Z,6.68
2022-12-29T06:24:15.928Z,6.47
2022-12-29T06:24:47.261Z,7.25
2022-12-29T06:25:18.704Z,7.13
2022-12-29T06:25:50.086Z,7.30
2022-12-29T06:26:21.529Z,6.55
2022-12-29T06:26:52.912Z,7.38
2022-12-29T06:27:24.293Z,7.25
2022-12-29T06:27:55.698Z,7.10
2022-12-29T06:28:27.067Z,7.28
2022-12-29T06:28:58.417Z,6.88
2022-12-29T06:29:29.840Z,6.75
2022-12-29T06:30:01.327Z,7.25
2022-12-29T06:30:33.230Z,7.13
2022-12-29T06:31:04.660Z,7.47
2022-12-29T06:31:36.237Z,7.35
2022-12-29T06:32:07.745Z,7.20
2022-12-29T06:32:39.172Z,7.95
2022-12-29T06:33:10.590Z,7.50
2022-12-29T06:33:42.008Z,6.90
2022-12-29T06:34:13.854Z,7.43
2022-12-29T06:34:45.238Z,6.88
2022-12-29T06:35:16.736Z,6.88
2022-12-29T06:35:48.525Z,7.80
2022-12-29T06:36:19.917Z,6.53
2022-12-29T06:36:51.653Z,7.20
2022-12-29T06:37:23.005Z,7.40
2022-12-29T06:37:54.380Z,7.55
2022-12-29T06:38:25.778Z,6.90
2022-12-29T06:38:57.145Z,6.75
2022-12-29T06:39:28.688Z,6.87
2022-12-29T06:40:00.073Z,7.03
2022-12-29T06:40:31.429Z,7.10
2022-12-29T06:41:02.796Z,7.20
2022-12-29T06:41:34.175Z,7.68
2022-12-29T06:42:05.559Z,7.22
2022-12-29T06:42:37.005Z,7.25
2022-12-29T06:43:08.408Z,7.20
2022-12-29T06:43:39.769Z,7.50
2022-12-29T06:44:11.239Z,7.13
2022-12-29T06:44:42.669Z,6.97
2022-12-29T06:45:14.033Z,8.50
2022-12-29T06:45:45.621Z,8.07
2022-12-29T06:46:17.055Z,8.02
2022-12-29T06:46:48.692Z,7.77
2022-12-29T06:47:20.147Z,6.90
2022-12-29T06:47:51.560Z,7.60
2022-12-29T06:48:22.981Z,7.63
2022-12-29T06:48:54.406Z,7.30
2022-12-29T06:49:25.745Z,7.15
2022-12-29T06:49:57.141Z,8.23
2022-12-29T06:50:28.569Z,8.20
2022-12-29T06:50:59.938Z,7.32
2022-12-29T06:51:31.389Z,8.02
2022-12-29T06:52:06.215Z,8.13
2022-12-29T06:52:40.500Z,8.07
2022-12-29T06:53:11.898Z,7.32
2022-12-29T06:53:43.289Z,7.60
2022-12-29T06:54:14.703Z,7.75
2022-12-29T06:54:46.115Z,7.82
2022-12-29T06:55:17.589Z,8.07
2022-12-29T06:55:48.961Z,7.65
2022-12-29T06:56:20.324Z,8.00
2022-12-29T06:56:51.716Z,6.97
2022-12-29T06:57:23.175Z,7.00
2022-12-29T06:57:58.112Z,7.35
2022-12-29T06:58:29.489Z,7.75
2022-12-29T06:59:00.890Z,7.93
2022-12-29T06:59:32.366Z,8.52
2022-12-29T07:00:04.659Z,8.15
2022-12-29T07:00:36.113Z,8.23
2022-12-29T07:01:07.668Z,7.90
2022-12-29T07:01:39.218Z,7.25
2022-12-29T07:02:11.662Z,7.90
2022-12-29T07:02:43.412Z,8.07
2022-12-29T07:03:14.894Z,9.23
2022-12-29T07:03:46.376Z,8.35
2022-12-29T07:04:18.072Z,7.55
2022-12-29T07:04:49.519Z,8.93
2022-12-29T07:05:20.894Z,7.53
2022-12-29T07:05:52.278Z,7.80
2022-12-29T07:06:23.726Z,7.47
2022-12-29T07:06:55.160Z,9.02
2022-12-29T07:07:26.613Z,8.38
2022-12-29T07:07:57.991Z,8.20
2022-12-29T07:08:29.358Z,8.15
2022-12-29T07:09:00.897Z,8.10
2022-12-29T07:09:32.545Z,7.28
2022-12-29T07:10:04.138Z,8.38
2022-12-29T07:10:35.527Z,7.88
2022-12-29T07:11:06.914Z,8.18
2022-12-29T07:11:38.301Z,8.43
2022-12-29T07:12:09.756Z,9.35
2022-12-29T07:12:41.123Z,8.40
2022-12-29T07:13:12.523Z,9.23
2022-12-29T07:13:43.909Z,9.07
2022-12-29T07:14:15.376Z,8.80
2022-12-29T07:14:46.702Z,9.63
2022-12-29T07:15:18.254Z,8.30
2022-12-29T07:15:49.688Z,9.40
2022-12-29T07:16:21.132Z,9.48
2022-12-29T07:16:52.570Z,9.57